createdAt,value
2019-01-30T00:00:04.560Z,83.20
2019-01-30T00:02:32.537Z,83.12
2019-01-30T00:05:00.506Z,83.04
2019-01-30T00:07:28.195Z,83.05
2019-01-30T00:09:56.135Z,83.14
2019-01-30T00:12:24.102Z,83.21
2019-01-30T00:14:52.076Z,83.30
2019-01-30T00:17:20.040Z,83.44
2019-01-30T00:19:48.012Z,83.53
2019-01-30T00:22:15.979Z,83.50
2019-01-30T00:24:43.949Z,83.52
2019-01-30T00:27:11.918Z,83.69
2019-01-30T00:29:39.897Z,84.06
2019-01-30T00:32:07.505Z,84.02
2019-01-30T00:34:35.137Z,83.75
2019-01-30T00:37:03.081Z,83.76
2019-01-30T00:39:31.049Z,83.44
2019-01-30T00:41:58.670Z,83.29
2019-01-30T00:44:26.583Z,83.31
2019-01-30T00:46:54.203Z,83.10
2019-01-30T00:49:22.110Z,82.92
2019-01-30T00:51:50.081Z,83.05
2019-01-30T00:54:17.711Z,83.39
2019-01-30T00:56:45.339Z,83.26
2019-01-30T00:59:13.276Z,83.45
2019-01-30T01:01:41.259Z,83.42
2019-01-30T01:04:08.887Z,83.16
2019-01-30T01:06:36.522Z,82.91
2019-01-30T01:09:06.075Z,83.06
2019-01-30T01:11:34.042Z,82.74
2019-01-30T01:14:02.008Z,82.84
2019-01-30T01:16:29.880Z,83.08
2019-01-30T01:18:57.505Z,82.71
2019-01-30T01:21:25.406Z,82.81
2019-01-30T01:23:53.115Z,82.74
2019-01-30T01:26:21.063Z,82.72
2019-01-30T01:28:49.008Z,82.96
2019-01-30T01:31:16.872Z,83.30
2019-01-30T01:33:44.853Z,83.43
2019-01-30T01:36:12.817Z,83.43
2019-01-30T01:38:40.451Z,83.79
2019-01-30T01:41:08.077Z,83.78
2019-01-30T01:43:35.710Z,83.84
2019-01-30T01:46:03.346Z,83.68
2019-01-30T01:48:31.232Z,83.86
2019-01-30T01:50:59.220Z,84.19
2019-01-30T01:53:27.174Z,84.02
2019-01-30T01:55:55.137Z,84.05
2019-01-30T01:58:23.111Z,84.08
2019-01-30T02:00:51.084Z,84.17
2019-01-30T02:03:19.053Z,84.00
2019-01-30T02:05:46.688Z,84.02
2019-01-30T02:08:14.578Z,84.08
2019-01-30T02:10:42.550Z,84.04
2019-01-30T02:13:10.536Z,84.11
2019-01-30T02:15:38.168Z,84.00
2019-01-30T02:18:08.476Z,83.55
2019-01-30T02:20:35.656Z,83.55
2019-01-30T02:23:03.625Z,83.49
2019-01-30T02:25:31.615Z,83.49
2019-01-30T02:28:00.876Z,83.11
2019-01-30T02:30:28.701Z,83.27
2019-01-30T02:32:56.756Z,83.40
2019-01-30T02:35:24.380Z,82.82
2019-01-30T02:37:51.998Z,82.77
2019-01-30T02:40:19.919Z,83.07
2019-01-30T02:42:47.903Z,82.76
2019-01-30T02:45:15.528Z,82.81
2019-01-30T02:47:43.422Z,82.90
2019-01-30T02:50:11.040Z,83.03
2019-01-30T02:52:38.959Z,82.94
2019-01-30T02:55:06.896Z,82.64
2019-01-30T02:57:34.792Z,82.43
2019-01-30T03:00:02.418Z,82.11
2019-01-30T03:02:30.326Z,82.40
2019-01-30T03:04:58.296Z,82.47
2019-01-30T03:07:26.265Z,82.64
2019-01-30T03:09:53.883Z,81.97
2019-01-30T03:12:21.786Z,82.18
2019-01-30T03:14:49.778Z,82.27
2019-01-30T03:17:17.398Z,82.08
2019-01-30T03:19:45.287Z,82.13
2019-01-30T03:22:13.260Z,82.32
2019-01-30T03:24:41.247Z,82.32
2019-01-30T03:27:08.867Z,81.43
2019-01-30T03:29:36.490Z,81.54
2019-01-30T03:32:04.426Z,81.23
2019-01-30T03:34:32.039Z,81.37
2019-01-30T03:36:59.956Z,81.26
2019-01-30T03:39:27.919Z,81.32
2019-01-30T03:41:55.892Z,80.94
2019-01-30T03:44:23.770Z,80.81
2019-01-30T03:46:51.729Z,80.80
2019-01-30T03:49:19.699Z,80.49
2019-01-30T03:51:47.326Z,80.53
2019-01-30T03:54:14.960Z,80.17
2019-01-30T03:56:42.887Z,79.64
2019-01-30T03:59:10.506Z,79.85
2019-01-30T04:01:38.418Z,80.02
2019-01-30T04:04:06.046Z,79.99
2019-01-30T04:06:33.948Z,79.57
2019-01-30T04:09:01.922Z,79.40
2019-01-30T04:11:29.884Z,79.12
2019-01-30T04:14:00.586Z,79.14
2019-01-30T04:16:27.177Z,79.24
2019-01-30T04:18:55.130Z,79.06
2019-01-30T04:21:22.763Z,79.00
2019-01-30T04:23:50.377Z,79.12
2019-01-30T04:26:18.322Z,78.83
2019-01-30T04:28:45.953Z,78.91
2019-01-30T04:31:13.839Z,78.90
2019-01-30T04:33:41.710Z,78.89
2019-01-30T04:36:09.683Z,79.01
2019-01-30T04:38:37.296Z,78.83
2019-01-30T04:41:05.234Z,78.87
2019-01-30T04:43:32.860Z,78.71
2019-01-30T04:46:00.843Z,78.41
2019-01-30T04:48:28.816Z,78.45
2019-01-30T04:50:56.786Z,78.42
2019-01-30T04:53:24.754Z,78.69
2019-01-30T04:55:52.765Z,78.27
2019-01-30T04:58:20.357Z,78.01
2019-01-30T05:00:48.258Z,77.81
2019-01-30T05:03:16.226Z,77.97
2019-01-30T05:05:44.219Z,77.92
2019-01-30T05:08:11.836Z,78.41
2019-01-30T05:10:39.823Z,78.74
2019-01-30T05:13:07.796Z,78.66
2019-01-30T05:15:35.763Z,78.48
2019-01-30T05:18:03.399Z,78.17
2019-01-30T05:20:31.007Z,78.35
2019-01-30T05:22:58.953Z,78.56
2019-01-30T05:25:26.936Z,78.37
2019-01-30T05:27:54.897Z,78.16
2019-01-30T05:30:22.527Z,78.07
2019-01-30T05:32:50.155Z,77.81
2019-01-30T05:35:17.841Z,77.90
2019-01-30T05:37:45.758Z,77.50
2019-01-30T05:40:13.362Z,77.71
2019-01-30T05:42:41.277Z,78.16
2019-01-30T05:45:08.893Z,77.89
2019-01-30T05:47:36.815Z,77.94
2019-01-30T05:50:04.781Z,77.80
2019-01-30T05:52:32.745Z,77.23
2019-01-30T05:55:00.366Z,76.68
2019-01-30T05:57:27.999Z,76.66
2019-01-30T05:59:55.935Z,76.78
2019-01-30T06:02:23.912Z,76.71
2019-01-30T06:04:51.534Z,76.54
2019-01-30T06:07:19.441Z,75.82
2019-01-30T06:09:47.410Z,75.90
2019-01-30T06:12:15.032Z,75.88
2019-01-30T06:14:42.938Z,76.13
2019-01-30T06:17:11.033Z,76.38
2019-01-30T06:19:38.601Z,75.06
2019-01-30T06:22:06.535Z,74.89
2019-01-30T06:24:34.164Z,74.67
2019-01-30T06:27:01.789Z,74.33
2019-01-30T06:29:29.729Z,74.31
2019-01-30T06:31:57.351Z,74.17
2019-01-30T06:34:24.987Z,74.40
2019-01-30T06:36:52.925Z,73.92
2019-01-30T06:39:20.892Z,73.84
2019-01-30T06:41:48.867Z,73.68
2019-01-30T06:44:16.829Z,73.86
2019-01-30T06:46:44.805Z,74.14
2019-01-30T06:49:12.677Z,73.84
2019-01-30T06:51:40.641Z,74.01
2019-01-30T06:54:08.506Z,74.18
2019-01-30T06:56:36.477Z,74.45
2019-01-30T06:59:04.448Z,74.32
2019-01-30T07:01:32.486Z,74.36
2019-01-30T07:04:00.393Z,74.54
2019-01-30T07:06:28.373Z,73.96
2019-01-30T07:08:55.987Z,74.08
2019-01-30T07:11:23.689Z,74.17
2019-01-30T07:13:51.654Z,73.86
2019-01-30T07:16:19.621Z,73.86
2019-01-30T07:18:47.249Z,73.86
2019-01-30T07:21:14.859Z,73.74
2019-01-30T07:23:42.486Z,73.53
2019-01-30T07:26:10.370Z,74.01
2019-01-30T07:28:38.337Z,73.66
2019-01-30T07:31:06.206Z,73.25
2019-01-30T07:33:34.179Z,73.25
2019-01-30T07:36:01.812Z,73.22
2019-01-30T07:38:29.440Z,73.21
2019-01-30T07:40:58.387Z,72.85
2019-01-30T07:43:26.362Z,72.81
2019-01-30T07:45:53.977Z,72.96
2019-01-30T07:48:21.895Z,72.83
2019-01-30T07:50:49.501Z,72.58
2019-01-30T07:53:17.417Z,72.35
2019-01-30T07:55:45.041Z,72.20
2019-01-30T07:58:12.958Z,72.22
2019-01-30T08:00:40.921Z,72.15
2019-01-30T08:03:08.544Z,71.94
2019-01-30T08:05:36.467Z,71.81
2019-01-30T08:08:04.400Z,72.16
2019-01-30T08:10:32.289Z,71.97
2019-01-30T08:13:00.263Z,71.95
2019-01-30T08:15:28.233Z,71.66
2019-01-30T08:17:55.867Z,71.33
2019-01-30T08:20:23.758Z,71.29
2019-01-30T08:22:51.539Z,71.18
2019-01-30T08:25:19.931Z,70.37
2019-01-30T08:27:47.890Z,70.57
2019-01-30T08:30:22.284Z,69.90
2019-01-30T08:32:45.461Z,70.08
2019-01-30T08:35:13.159Z,70.06
2019-01-30T08:37:41.081Z,69.66
2019-01-30T08:40:09.046Z,69.46
2019-01-30T08:42:36.702Z,69.35
2019-01-30T08:45:04.327Z,69.61
2019-01-30T08:47:31.951Z,69.09
2019-01-30T08:49:59.903Z,68.92
2019-01-30T08:52:27.879Z,68.66
2019-01-30T08:54:55.839Z,68.67
2019-01-30T08:57:23.469Z,68.26
2019-01-30T08:59:51.370Z,67.98
2019-01-30T09:02:21.062Z,67.48
2019-01-30T09:04:48.300Z,66.97
2019-01-30T09:07:16.203Z,67.21
2019-01-30T09:09:44.086Z,67.05
2019-01-30T09:12:12.036Z,66.70
2019-01-30T09:14:39.924Z,66.76
2019-01-30T09:17:08.728Z,65.68
2019-01-30T09:19:36.425Z,65.28
2019-01-30T09:22:04.042Z,65.40
2019-01-30T09:24:31.658Z,64.85
2019-01-30T09:26:59.546Z,64.96
2019-01-30T09:29:27.528Z,64.71
2019-01-30T09:31:55.140Z,64.54
2019-01-30T09:34:23.072Z,64.67
2019-01-30T09:36:51.017Z,64.21
2019-01-30T09:39:19.003Z,64.06
2019-01-30T09:41:46.956Z,63.85
2019-01-30T09:44:14.936Z,63.96
2019-01-30T09:46:42.556Z,63.71
2019-01-30T09:49:10.189Z,63.41
2019-01-30T09:51:38.191Z,63.23
2019-01-30T09:54:05.829Z,63.51
2019-01-30T09:56:33.507Z,62.99
2019-01-30T09:59:01.080Z,62.80
2019-01-30T10:01:28.972Z,62.66
2019-01-30T10:03:56.597Z,62.58
2019-01-30T10:06:24.213Z,62.82
2019-01-30T10:08:52.166Z,62.58
2019-01-30T10:11:20.134Z,62.17
2019-01-30T10:13:48.104Z,61.53
2019-01-30T10:16:15.971Z,61.40
2019-01-30T10:18:43.597Z,61.17
2019-01-30T10:21:11.213Z,60.81
2019-01-30T10:23:38.833Z,61.04
2019-01-30T10:26:06.447Z,60.79
2019-01-30T10:28:34.384Z,60.65
2019-01-30T10:31:02.251Z,59.84
2019-01-30T10:33:30.224Z,59.79
2019-01-30T10:35:57.851Z,60.05
2019-01-30T10:38:25.533Z,59.93
2019-01-30T10:40:53.159Z,59.16
2019-01-30T10:43:20.787Z,58.80
2019-01-30T10:45:48.398Z,59.30
2019-01-30T10:48:16.302Z,59.27
2019-01-30T10:50:43.909Z,58.36
2019-01-30T10:53:11.828Z,59.14
2019-01-30T10:55:39.448Z,59.12
2019-01-30T10:58:07.353Z,58.83
2019-01-30T11:00:35.043Z,59.22
2019-01-30T11:03:02.993Z,59.32
2019-01-30T11:05:30.609Z,59.08
2019-01-30T11:07:58.533Z,58.64
2019-01-30T11:10:26.493Z,58.21
2019-01-30T11:12:54.118Z,58.07
2019-01-30T11:15:21.741Z,57.96
2019-01-30T11:17:49.366Z,57.94
2019-01-30T11:20:16.997Z,58.20
2019-01-30T11:22:44.904Z,57.81
2019-01-30T11:25:12.876Z,57.70
2019-01-30T11:27:40.844Z,57.21
2019-01-30T11:30:08.811Z,56.57
2019-01-30T11:32:36.692Z,56.41
2019-01-30T11:35:04.647Z,56.56
2019-01-30T11:37:32.336Z,56.00
2019-01-30T11:40:00.284Z,56.32
2019-01-30T11:42:28.252Z,56.19
2019-01-30T11:44:56.213Z,56.30
2019-01-30T11:47:24.089Z,56.37
2019-01-30T11:49:52.079Z,56.14
2019-01-30T11:52:20.029Z,55.71
2019-01-30T11:54:47.997Z,56.13
2019-01-30T11:57:15.884Z,55.49
2019-01-30T11:59:43.840Z,55.71
2019-01-30T12:02:11.699Z,55.86
2019-01-30T12:04:39.667Z,55.38
2019-01-30T12:07:07.298Z,55.97
2019-01-30T12:09:34.917Z,56.28
2019-01-30T12:12:02.862Z,56.38
2019-01-30T12:14:30.830Z,56.09
2019-01-30T12:16:58.700Z,56.33
2019-01-30T12:19:26.668Z,56.05
2019-01-30T12:21:54.545Z,55.98
2019-01-30T12:24:22.504Z,56.42
2019-01-30T12:26:50.122Z,56.18
2019-01-30T12:29:18.036Z,56.17
2019-01-30T12:31:45.899Z,56.31
2019-01-30T12:34:13.872Z,56.68
2019-01-30T12:36:41.848Z,57.18
2019-01-30T12:39:10.019Z,57.10
2019-01-30T12:41:37.639Z,56.25
2019-01-30T12:44:05.624Z,56.76
2019-01-30T12:46:33.513Z,56.78
2019-01-30T12:49:01.158Z,56.37
2019-01-30T12:51:29.046Z,56.90
2019-01-30T12:53:57.024Z,56.72
2019-01-30T12:56:24.633Z,56.79
2019-01-30T12:58:52.544Z,56.63
2019-01-30T13:01:20.532Z,56.64
2019-01-30T13:03:48.154Z,56.56
2019-01-30T13:06:15.780Z,56.42
2019-01-30T13:08:43.399Z,56.14
2019-01-30T13:11:11.369Z,56.97
2019-01-30T13:13:38.980Z,56.00
2019-01-30T13:16:06.897Z,55.52
2019-01-30T13:18:34.871Z,55.82
2019-01-30T13:21:02.836Z,55.46
2019-01-30T13:23:30.453Z,55.71
2019-01-30T13:25:58.376Z,56.01
2019-01-30T13:28:25.978Z,55.90
2019-01-30T13:30:53.618Z,55.78
2019-01-30T13:33:21.563Z,55.62
2019-01-30T13:35:49.188Z,55.68
2019-01-30T13:38:16.803Z,56.00
2019-01-30T13:40:44.753Z,56.00
2019-01-30T13:43:12.360Z,56.31
2019-01-30T13:45:40.292Z,55.85
2019-01-30T13:48:08.279Z,55.96
2019-01-30T13:50:35.962Z,56.15
2019-01-30T13:53:04.014Z,56.16
2019-01-30T13:55:31.885Z,56.62
2019-01-30T13:58:02.058Z,56.52
2019-01-30T14:00:29.122Z,56.79
2019-01-30T14:02:57.113Z,57.20
2019-01-30T14:05:25.087Z,57.49
2019-01-30T14:07:52.960Z,58.34
2019-01-30T14:10:20.897Z,58.07
2019-01-30T14:12:48.793Z,58.38
2019-01-30T14:15:16.415Z,58.43
2019-01-30T14:17:44.009Z,58.69
2019-01-30T14:20:11.647Z,59.07
2019-01-30T14:22:39.266Z,59.09
2019-01-30T14:25:07.217Z,59.15
2019-01-30T14:27:35.167Z,59.15
2019-01-30T14:30:02.797Z,58.83
2019-01-30T14:32:30.411Z,58.90
2019-01-30T14:34:58.096Z,58.87
2019-01-30T14:37:26.014Z,59.03
2019-01-30T14:39:53.650Z,59.11
2019-01-30T14:42:21.568Z,59.21
2019-01-30T14:44:49.204Z,59.15
2019-01-30T14:47:17.092Z,59.44
2019-01-30T14:49:45.031Z,60.02
2019-01-30T14:52:12.652Z,59.93
2019-01-30T14:54:40.342Z,60.16
2019-01-30T14:57:07.966Z,60.33
2019-01-30T14:59:35.574Z,60.59
2019-01-30T15:02:03.209Z,61.03
2019-01-30T15:04:30.820Z,61.00
2019-01-30T15:06:58.787Z,61.18
2019-01-30T15:09:26.397Z,61.63
2019-01-30T15:11:54.047Z,61.28
2019-01-30T15:14:21.973Z,61.56
2019-01-30T15:16:49.952Z,62.01
2019-01-30T15:19:17.801Z,62.05
2019-01-30T15:21:45.471Z,62.08
2019-01-30T15:24:13.336Z,62.48
2019-01-30T15:26:41.300Z,62.38
2019-01-30T15:29:09.269Z,63.01
2019-01-30T15:31:37.238Z,62.78
2019-01-30T15:34:05.218Z,62.93
2019-01-30T15:36:32.834Z,63.12
2019-01-30T15:39:00.737Z,63.72
2019-01-30T15:41:28.390Z,63.35
2019-01-30T15:43:56.270Z,63.51
2019-01-30T15:46:24.240Z,63.20
2019-01-30T15:48:51.894Z,63.94
2019-01-30T15:51:19.523Z,64.28
2019-01-30T15:53:47.434Z,64.32
2019-01-30T15:56:15.394Z,64.39
2019-01-30T15:58:43.268Z,64.74
2019-01-30T16:01:11.236Z,64.62
2019-01-30T16:03:38.867Z,65.07
2019-01-30T16:06:06.764Z,65.41
2019-01-30T16:08:34.380Z,65.53
2019-01-30T16:11:02.300Z,65.44
2019-01-30T16:13:30.160Z,65.77
2019-01-30T16:15:58.140Z,65.91
2019-01-30T16:18:26.108Z,65.73
2019-01-30T16:20:54.076Z,66.19
2019-01-30T16:23:21.709Z,66.68
2019-01-30T16:25:49.327Z,66.52
2019-01-30T16:28:17.264Z,66.73
2019-01-30T16:30:44.887Z,66.94
2019-01-30T16:33:12.499Z,67.17
2019-01-30T16:35:40.461Z,67.48
2019-01-30T16:38:08.424Z,67.77
2019-01-30T16:40:36.040Z,67.58
2019-01-30T16:43:03.956Z,67.77
2019-01-30T16:45:31.589Z,67.48
2019-01-30T16:47:59.207Z,67.84
2019-01-30T16:50:27.258Z,67.95
2019-01-30T16:52:54.877Z,68.03
2019-01-30T16:55:22.773Z,68.36
2019-01-30T16:57:50.756Z,68.17
2019-01-30T17:00:18.393Z,66.83
2019-01-30T17:02:46.595Z,66.09
2019-01-30T17:05:14.594Z,65.19
2019-01-30T17:07:42.220Z,65.13
2019-01-30T17:10:10.205Z,65.32
2019-01-30T17:12:38.158Z,65.23
2019-01-30T17:15:06.136Z,65.20
2019-01-30T17:17:34.209Z,65.39
2019-01-30T17:20:02.186Z,65.79
2019-01-30T17:22:30.143Z,65.80
2019-01-30T17:24:57.779Z,66.02
2019-01-30T17:27:25.807Z,65.92
2019-01-30T17:29:53.915Z,66.60
2019-01-30T17:32:21.646Z,66.31
2019-01-30T17:34:51.911Z,65.91
2019-01-30T17:37:19.187Z,65.40
2019-01-30T17:39:47.159Z,65.90
2019-01-30T17:42:14.795Z,66.22
2019-01-30T17:44:42.689Z,65.56
2019-01-30T17:47:10.658Z,65.04
2019-01-30T17:49:38.288Z,65.34
2019-01-30T17:52:06.298Z,65.01
2019-01-30T17:54:34.370Z,64.56
2019-01-30T17:57:02.538Z,64.78
2019-01-30T17:59:30.506Z,65.33
2019-01-30T18:01:58.489Z,64.74
2019-01-30T18:04:26.442Z,65.23
2019-01-30T18:06:54.089Z,65.16
2019-01-30T18:09:22.190Z,64.88
2019-01-30T18:11:49.840Z,64.90
2019-01-30T18:14:17.818Z,64.93
2019-01-30T18:16:45.778Z,64.83
2019-01-30T18:19:13.760Z,64.83
2019-01-30T18:21:41.722Z,64.81
2019-01-30T18:24:09.371Z,64.68
2019-01-30T18:26:38.006Z,64.85
2019-01-30T18:29:06.034Z,65.40
2019-01-30T18:31:33.675Z,65.39
2019-01-30T18:34:01.570Z,65.72
2019-01-30T18:36:40.357Z,65.69
2019-01-30T18:38:58.841Z,66.29
2019-01-30T18:41:26.495Z,66.47
2019-01-30T18:43:54.480Z,66.08
2019-01-30T18:46:22.444Z,65.83
2019-01-30T18:48:50.076Z,66.11
2019-01-30T18:51:17.713Z,65.75
2019-01-30T18:53:45.360Z,66.53
2019-01-30T18:56:13.449Z,66.47
2019-01-30T18:58:41.366Z,66.91
2019-01-30T19:01:09.439Z,66.33
2019-01-30T19:03:37.078Z,65.94
2019-01-30T19:06:04.720Z,65.97
2019-01-30T19:08:32.376Z,65.06
2019-01-30T19:11:00.311Z,65.47
2019-01-30T19:13:28.273Z,65.21
2019-01-30T19:15:56.237Z,65.37
2019-01-30T19:18:24.203Z,65.45
2019-01-30T19:20:52.172Z,65.31
2019-01-30T19:23:20.140Z,65.20
2019-01-30T19:25:48.221Z,65.69
2019-01-30T19:28:16.516Z,65.61
2019-01-30T19:30:45.203Z,65.51
2019-01-30T19:33:13.258Z,65.30
2019-01-30T19:35:41.231Z,65.28
2019-01-30T19:38:09.193Z,65.22
2019-01-30T19:40:37.156Z,65.28
2019-01-30T19:43:04.800Z,65.39
2019-01-30T19:45:32.431Z,65.42
2019-01-30T19:48:00.363Z,65.15
2019-01-30T19:50:28.425Z,65.07
2019-01-30T19:52:56.390Z,65.29
2019-01-30T19:55:24.010Z,65.13
2019-01-30T19:57:51.653Z,64.98
2019-01-30T20:00:19.343Z,64.51
2019-01-30T20:02:47.241Z,64.62
2019-01-30T20:05:15.215Z,64.46
2019-01-30T20:07:42.847Z,64.67
2019-01-30T20:10:10.848Z,65.25
2019-01-30T20:12:38.478Z,65.70
2019-01-30T20:15:06.101Z,65.75
2019-01-30T20:17:33.801Z,65.58
2019-01-30T20:20:01.501Z,65.66
2019-01-30T20:22:29.463Z,65.88
2019-01-30T20:24:57.095Z,66.12
2019-01-30T20:27:24.720Z,65.49
2019-01-30T20:29:52.761Z,65.50
2019-01-30T20:32:20.732Z,65.76
2019-01-30T20:34:48.696Z,65.99
2019-01-30T20:37:25.897Z,66.24
2019-01-30T20:39:46.377Z,66.02
2019-01-30T20:42:14.003Z,65.84
2019-01-30T20:44:41.634Z,65.74
2019-01-30T20:47:09.606Z,65.98
2019-01-30T20:49:37.591Z,66.07
2019-01-30T20:52:05.234Z,66.21
2019-01-30T20:54:33.194Z,66.51
2019-01-30T20:57:00.902Z,66.50
2019-01-30T20:59:28.808Z,66.50
2019-01-30T21:01:56.777Z,66.60
2019-01-30T21:04:24.416Z,66.82
2019-01-30T21:06:52.401Z,66.98
2019-01-30T21:09:20.376Z,67.10
2019-01-30T21:11:48.344Z,67.14
2019-01-30T21:14:16.318Z,67.21
2019-01-30T21:16:43.952Z,67.38
2019-01-30T21:19:11.659Z,67.45
2019-01-30T21:21:39.306Z,67.51
2019-01-30T21:24:07.298Z,67.27
2019-01-30T21:26:35.348Z,67.59
2019-01-30T21:29:03.420Z,67.42
2019-01-30T21:31:31.385Z,67.59
2019-01-30T21:33:59.023Z,67.66
2019-01-30T21:36:27.044Z,67.57
2019-01-30T21:38:54.987Z,67.92
2019-01-30T21:41:22.617Z,67.91
2019-01-30T21:43:50.518Z,68.05
2019-01-30T21:46:18.487Z,67.73
2019-01-30T21:48:46.132Z,67.96
2019-01-30T21:51:14.026Z,67.46
2019-01-30T21:53:41.985Z,67.65
2019-01-30T21:56:10.049Z,67.67
2019-01-30T21:58:38.035Z,67.80
2019-01-30T22:01:05.851Z,67.90
2019-01-30T22:03:33.864Z,68.12
2019-01-30T22:06:01.510Z,68.03
2019-01-30T22:08:29.602Z,68.03
2019-01-30T22:10:57.233Z,67.99
2019-01-30T22:13:24.884Z,68.30
2019-01-30T22:15:52.524Z,68.52
2019-01-30T22:18:20.452Z,68.63
2019-01-30T22:20:48.424Z,69.08
2019-01-30T22:23:16.398Z,69.09
2019-01-30T22:25:44.364Z,69.27
2019-01-30T22:28:11.997Z,69.23
2019-01-30T22:30:39.651Z,69.00
2019-01-30T22:33:07.562Z,68.69
2019-01-30T22:35:35.238Z,68.88
2019-01-30T22:38:11.987Z,69.15
2019-01-30T22:40:32.902Z,68.89
2019-01-30T22:43:00.869Z,68.78
2019-01-30T22:45:28.839Z,68.53
2019-01-30T22:47:56.466Z,68.79
2019-01-30T22:50:24.470Z,68.60
2019-01-30T22:52:52.126Z,68.59
2019-01-30T22:55:19.816Z,68.76
2019-01-30T22:57:50.740Z,69.07
2019-01-30T23:00:17.479Z,68.89
2019-01-30T23:02:45.447Z,68.74
2019-01-30T23:05:13.096Z,68.91
2019-01-30T23:07:41.218Z,68.86
2019-01-30T23:10:09.157Z,68.89
2019-01-30T23:12:37.122Z,69.33
2019-01-30T23:15:05.090Z,69.20
2019-01-30T23:17:32.745Z,69.00
2019-01-30T23:20:00.715Z,68.93
2019-01-30T23:22:28.356Z,69.15
2019-01-30T23:24:56.359Z,68.94
2019-01-30T23:27:24.319Z,69.10
2019-01-30T23:29:52.288Z,69.00
2019-01-30T23:32:20.267Z,68.83
2019-01-30T23:34:48.305Z,69.08
2019-01-30T23:37:16.296Z,69.32
2019-01-30T23:39:44.273Z,69.17
2019-01-30T23:42:12.238Z,69.04
2019-01-30T23:44:39.894Z,68.79
2019-01-30T23:47:07.972Z,68.71
2019-01-30T23:49:35.946Z,68.79
2019-01-30T23:52:03.589Z,68.99
2019-01-30T23:54:31.238Z,68.76
2019-01-30T23:56:59.267Z,68.92
2019-01-30T23:59:27.213Z,69.03
